EW5550 Weather Reports


time (UTC)temp
C
wind
direction
speed
KPH
gust
KPH
rain 1hr
cm
rain 24hr
cm
rain mn
cm
humidity
%
barometer
mb
20190425021525 9 322 0.0 1.6 0.00 0.00 0.00 27 1010.7
20190425020517 8 313 0.0 1.6 0.00 0.00 0.00 26 1010.5
20190425015527 8 307 0.0 1.6 0.00 0.00 0.00 30 1010.2
20190425014518 8 352 0.0 0.0 0.00 0.00 0.00 33 1010.2
20190425013520 8 0.0 0.0 0.00 0.00 0.00 35 1010.1
20190425012518 8 187 0.0 0.0 0.00 0.00 0.00 29 1010.2
20190425011526 8 0.0 0.0 0.00 0.00 0.00 29 1010.3
20190425010529 8 297 0.0 0.0 0.00 0.00 0.00 32 1010.3
20190425005525 9 298 0.0 1.6 0.00 0.00 0.00 32 1010.2
20190425004518 8 291 0.0 3.2 0.00 0.00 0.00 33 1010.3
20190425003525 8 291 0.0 3.2 0.00 0.00 0.00 33 1010.2
20190425002519 8 299 0.0 1.6 0.00 0.00 0.00 35 1009.9
20190425001520 8 298 0.0 0.0 0.00 0.00 0.00 36 1009.8
20190425000519 8 274 0.0 1.6 0.00 0.00 0.00 34 1009.9
20190424235525 9 298 0.0 3.2 0.00 0.00 0.00 33 1009.9
20190424234517 9 144 0.0 3.2 0.00 0.00 0.00 32 1009.8
20190424233527 9 97 0.0 1.6 0.00 0.00 0.00 28 1009.9
20190424232518 8 15 0.0 0.0 0.00 0.00 0.00 32 1009.8
20190424231525 9 279 0.0 0.0 0.00 0.00 0.00 34 1009.8
20190424230520 9 306 0.0 0.0 0.00 0.00 0.00 34 1009.8
20190424225520 10 288 0.0 0.0 0.00 0.00 0.00 33 1009.7
20190424224524 10 220 0.0 1.6 0.00 0.00 0.00 31 1009.8
20190424223527 10 268 0.0 1.6 0.00 0.00 0.00 31 1009.6
20190424222520 10 274 0.0 1.6 0.00 0.00 0.00 31 1009.5
20190424221526 10 354 0.0 3.2 0.00 0.00 0.00 31 1009.3
20190424220520 10 58 0.0 4.8 0.00 0.00 0.00 31 1009.2
20190424215526 10 38 1.6 8.0 0.00 0.00 0.00 31 1009.0
20190424214518 10 48 3.2 9.7 0.00 0.00 0.00 30 1008.7
20190424213520 11 53 3.2 8.0 0.00 0.00 0.00 31 1008.6
20190424212519 11 40 1.6 8.0 0.00 0.00 0.00 30 1008.7
20190424211525 11 45 3.2 11.3 0.00 0.00 0.00 31 1008.6
20190424210521 12 33 4.8 9.7 0.00 0.00 0.00 31 1008.6
20190424205525 14 48 3.2 9.7 0.00 0.00 0.00 35 1008.2
20190424204533 16 55 3.2 9.7 0.00 0.00 0.00 33 1007.4
20190424203526 18 27 4.8 11.3 0.00 0.00 0.00 24 1007.2
20190424202518 18 108 0.0 3.2 0.00 0.00 0.00 22 1006.1
20190424201526 18 260 0.0 0.0 0.00 0.00 0.00 22 1004.9
20190424200518 18 300 1.6 4.8 0.00 0.00 0.00 22 1004.6
20190424195525 19 280 0.0 3.2 0.00 0.00 0.00 22 1004.6
20190424194517 19 280 1.6 4.8 0.00 0.00 0.00 22 1004.5
20190424193525 19 286 0.0 4.8 0.00 0.00 0.00 22 1004.6
20190424192518 19 281 1.6 3.2 0.00 0.00 0.00 22 1004.5
20190424191525 20 288 1.6 3.2 0.00 0.00 0.00 22 1004.7
20190424190520 20 277 1.6 4.8 0.00 0.00 0.00 20 1004.7
20190424185520 20 276 1.6 3.2 0.00 0.00 0.00 20 1004.5
20190424184517 20 281 1.6 6.4 0.00 0.00 0.00 19 1004.5
20190424183525 20 289 1.6 4.8 0.00 0.00 0.00 18 1004.4
20190424182550 21 279 1.6 4.8 0.00 0.00 0.00 18 1004.4
20190424181552 21 276 1.6 4.8 0.00 0.00 0.00 21 1004.4
20190424180519 21 265 1.6 4.8 0.00 0.00 0.00 21 1004.3
20190424175533 21 276 1.6 3.2 0.00 0.00 0.00 21 1004.3
20190424174534 22 284 1.6 3.2 0.00 0.00 0.00 21 1004.2
20190424173520 22 288 1.6 6.4 0.00 0.00 0.00 21 1004.1
20190424172533 22 279 1.6 4.8 0.00 0.00 0.00 20 1004.0
20190424171525 22 289 0.0 3.2 0.00 0.00 0.00 19 1003.9
20190424170530 22 296 0.0 3.2 0.00 0.00 0.00 18 1004.0
20190424165525 22 287 0.0 3.2 0.00 0.00 0.00 16 1003.9
20190424164533 23 289 1.6 3.2 0.00 0.00 0.00 14 1003.9
20190424163525 23 294 0.0 3.2 0.00 0.00 0.00 13 1003.9
20190424162534 23 319 0.0 3.2 0.00 0.00 0.00 13 1004.0
20190424150536 24 297 0.0 3.2 0.00 0.00 0.00 12 1004.0
20190424145510 24 292 1.6 4.8 0.00 0.00 0.00 12 1004.0
20190424144519 23 330 0.0 1.6 0.00 0.00 0.00 12 1004.0
20190424085527 17 170 1.6 3.2 0.00 0.00 0.00 23 1005.1
20190424084516 17 195 1.6 3.2 0.00 0.00 0.00 23 1005.0
20190424083533 17 195 0.0 1.6 0.00 0.00 0.00 23 1005.0
20190424082522 16 178 0.0 1.6 0.00 0.00 0.00 22 1005.1
20190424082220 16 201 0.0 3.2 0.00 0.00 0.00 23 1005.0
20190424080525 16 195 0.0 1.6 0.00 0.00 0.00 22 1004.9
20190424075528 15 176 1.6 3.2 0.00 0.00 0.00 23 1004.8
20190424074526 15 156 0.0 3.2 0.00 0.00 0.00 22 1004.8
20190424073524 15 198 0.0 3.2 0.00 0.00 0.00 22 1004.8
20190424072923 15 232 0.0 3.2 0.00 0.00 0.00 23 1004.8
20190424071533 15 218 0.0 1.6 0.00 0.00 0.00 23 1004.8
20190424070521 14 280 0.0 0.0 0.00 0.00 0.00 25 1004.5
20190424065540 13 238 0.0 1.6 0.00 0.00 0.00 27 1004.5
20190424064515 13 230 0.0 1.6 0.00 0.00 0.00 27 1004.6
20190424063527 13 201 0.0 1.6 0.00 0.00 0.00 27 1004.6
20190424062515 12 218 0.0 0.0 0.00 0.00 0.00 27 1004.5
20190424061525 12 266 0.0 0.0 0.00 0.00 0.00 31 1004.4
20190424060521 11 253 0.0 1.6 0.00 0.00 0.00 33 1004.3
20190424055524 11 269 0.0 1.6 0.00 0.00 0.00 33 1004.2
20190424054516 11 255 0.0 1.6 0.00 0.00 0.00 32 1004.2
20190424053519 10 257 0.0 3.2 0.00 0.00 0.00 33 1004.3
20190424052516 10 275 0.0 1.6 0.00 0.00 0.00 35 1004.0
20190424051610 9 0.0 0.0 0.00 0.00 0.00 36 1003.9
20190424050715 8 0.0 0.0 0.00 0.00 0.00 40 1003.9
20190424045540 8 297 0.0 0.0 0.00 0.00 0.00 43 1003.8
20190424044518 8 296 0.0 0.0 0.00 0.00 0.00 44 1003.7
20190424043538 8 296 0.0 1.6 0.00 0.00 0.00 46 1003.8
20190424042517 8 298 0.0 1.6 0.00 0.00 0.00 47 1003.6
20190424041522 8 290 0.0 1.6 0.00 0.00 0.00 49 1003.4
20190424040518 8 0.0 0.0 0.00 0.00 0.00 47 1003.6
20190424035524 8 313 0.0 0.0 0.00 0.00 0.00 47 1003.5
20190424034516 8 0.0 0.0 0.00 0.00 0.00 46 1003.4
20190424033525 8 0.0 0.0 0.00 0.00 0.00 45 1003.3
20190424032535 9 286 0.0 1.6 0.00 0.00 0.00 43 1003.3
20190424031525 9 278 0.0 1.6 0.00 0.00 0.00 42 1003.3
20190424030517 10 286 0.0 1.6 0.00 0.00 0.00 41 1003.3
20190424025518 10 287 0.0 1.6 0.00 0.00 0.00 38 1003.3
20190424024515 10 292 0.0 1.6 0.00 0.00 0.00 36 1003.3
20190424023524 10 275 0.0 1.6 0.00 0.00 0.00 35 1003.3
20190424022515 10 274 0.0 1.6 0.00 0.00 0.00 35 1003.3